Time;durP1;ratioP1;P1;durP2;ratioP2;P2;SDS_P1;SDS_P2;PMS_P1;PMS_P2;Temp;Humidity;BMP_temperature;BMP_pressure;BME280_temperature;BME280_humidity;BME280_pressure;Samples;Min_cycle;Max_cycle;Signal;HPM_P1;HPM_P2
2022/12/30 00:00:08;;;;;;;2.28;2.04;;;;;;;4.80;65.60;101654.64;464857;114;923082;-72
2022/12/30 00:01:14;;;;;;;1.56;1.39;;;;;;;4.82;65.63;101654.50;465293;114;923485;-72
2022/12/30 00:02:17;;;;;;;1.40;1.26;;;;;;;4.83;65.48;101665.16;465270;114;922634;-73
2022/12/30 00:03:20;;;;;;;2.08;1.55;;;;;;;4.83;65.50;101653.50;465726;114;922621;-72
2022/12/30 00:04:23;;;;;;;2.18;1.34;;;;;;;4.82;65.67;101657.20;465677;114;922634;-72
2022/12/30 00:05:26;;;;;;;2.05;1.48;;;;;;;4.82;65.68;101660.76;464954;114;922532;-73
2022/12/30 00:06:29;;;;;;;1.71;1.39;;;;;;;4.83;65.63;101653.50;464819;114;922459;-72
2022/12/30 00:07:35;;;;;;;2.21;1.52;;;;;;;4.82;65.55;101654.50;465031;114;922980;-71
2022/12/30 00:08:47;;;;;;;1.72;1.29;;;;;;;4.81;65.59;101656.34;457490;116;922853;-73
2022/12/30 00:09:50;;;;;;;2.08;1.49;;;;;;;4.79;65.64;101650.27;462670;114;922555;-72
2022/12/30 00:10:55;;;;;;;2.02;1.69;;;;;;;4.79;65.64;101650.27;456314;116;922543;-72
2022/12/30 00:33:06;;;;;;;2.98;1.57;;;;;;;4.78;65.58;101651.27;464802;114;922604;-72
2022/12/30 00:34:07;;;;;;;2.81;1.71;;;;;;;4.68;66.16;101636.97;458014;114;923028;-73
2022/12/30 00:35:13;;;;;;;1.81;1.49;;;;;;;4.69;66.10;101638.64;460781;113;922558;-72
2022/12/30 00:36:16;;;;;;;2.72;1.69;;;;;;;4.69;66.19;101641.34;460266;114;922837;-73
2022/12/30 00:37:19;;;;;;;1.94;1.47;;;;;;;4.70;66.10;101631.39;457546;116;922963;-72
2022/12/30 00:38:22;;;;;;;2.48;1.72;;;;;;;4.71;66.06;101638.50;463454;113;922513;-72
2022/12/30 00:39:26;;;;;;;2.44;1.97;;;;;;;4.71;65.93;101638.50;460859;114;922827;-72
2022/12/30 00:40:29;;;;;;;2.82;1.59;;;;;;;4.71;66.04;101630.39;464522;114;922529;-72
2022/12/30 00:43:09;;;;;;;1.78;1.47;;;;;;;4.72;65.89;101621.30;458035;114;922634;-72
2022/12/30 00:44:12;;;;;;;2.20;1.48;;;;;;;4.72;65.99;101632.09;460721;114;922728;-74
2022/12/30 00:45:15;;;;;;;2.14;1.67;;;;;;;4.71;65.98;101625.84;461941;114;923267;-72
2022/12/30 00:46:19;;;;;;;2.03;1.47;;;;;;;4.73;66.01;101625.70;457889;114;922957;-72
2022/12/30 00:47:22;;;;;;;1.99;1.35;;;;;;;4.74;66.01;101619.30;458729;114;930352;-72
2022/12/30 00:56:34;;;;;;;2.04;1.63;;;;;;;4.79;66.01;101614.30;458593;114;922577;-72
2022/12/30 00:57:37;;;;;;;2.54;1.74;;;;;;;4.79;65.91;101619.70;460916;114;922565;-73
2022/12/30 00:58:40;;;;;;;1.91;1.45;;;;;;;4.79;65.99;101616.99;459230;113;922674;-73
2022/12/30 00:59:44;;;;;;;2.64;1.54;;;;;;;4.77;65.88;101619.84;458516;114;922517;-72
2022/12/30 01:00:47;;;;;;;1.77;1.51;;;;;;;4.77;65.96;101616.28;460612;114;923782;-71
2022/12/30 01:01:50;;;;;;;1.72;1.37;;;;;;;4.77;65.95;101618.98;458245;114;922605;-73
2022/12/30 01:02:54;;;;;;;2.72;1.52;;;;;;;4.77;66.00;101614.44;458759;114;922867;-71
2022/12/30 01:03:57;;;;;;;1.19;0.98;;;;;;;4.77;66.00;101614.44;458311;114;930322;-72
2022/12/30 01:05:00;;;;;;;2.05;1.21;;;;;;;4.78;65.85;101618.84;458221;114;923539;-72
2022/12/30 01:06:10;;;;;;;2.66;1.31;;;;;;;4.79;65.86;101619.70;458789;114;922551;-72
2022/12/30 01:07:20;;;;;;;1.57;1.35;;;;;;;4.91;65.99;101610.34;476919;110;947317;-72
2022/12/30 01:08:23;;;;;;;3.61;1.50;;;;;;;4.80;65.97;101615.97;465674;114;922526;-73
2022/12/30 01:09:27;;;;;;;1.57;1.32;;;;;;;4.78;65.93;101612.58;462442;112;930220;-71
2022/12/30 01:10:30;;;;;;;2.98;1.47;;;;;;;4.79;65.90;101619.70;457585;115;922623;-72
2022/12/30 01:11:33;;;;;;;2.66;1.29;;;;;;;4.78;65.99;101620.69;458011;112;923050;-72
2022/12/30 01:12:36;;;;;;;2.22;1.64;;;;;;;4.77;65.98;101614.44;458312;114;922455;-71
2022/12/30 01:13:39;;;;;;;1.89;1.40;;;;;;;4.76;66.04;101615.43;457663;115;922648;-73
2022/12/30 01:14:45;;;;;;;1.90;1.43;;;;;;;4.76;66.05;101615.43;459426;114;922977;-72
2022/12/30 01:15:48;;;;;;;1.56;1.39;;;;;;;4.76;65.94;101611.88;458890;114;923294;-72
2022/12/30 01:16:52;;;;;;;1.94;1.24;;;;;;;4.76;65.94;101611.88;458212;112;922588;-73
2022/12/30 01:17:55;;;;;;;2.35;1.55;;;;;;;4.75;66.07;101607.47;459040;112;922541;-71
2022/12/30 01:18:59;;;;;;;3.56;1.56;;;;;;;4.75;66.18;101612.87;459203;112;922462;-72
2022/12/30 01:20:03;;;;;;;2.25;1.69;;;;;;;4.74;66.22;101603.91;458937;112;922431;-72
2022/12/30 01:21:08;;;;;;;1.88;1.59;;;;;;;4.74;66.13;101611.20;458834;112;922641;-72
2022/12/30 01:22:11;;;;;;;1.79;1.42;;;;;;;4.73;66.13;101599.53;458354;114;922589;-73
2022/12/30 01:23:14;;;;;;;2.14;1.45;;;;;;;4.72;66.20;101595.13;459144;112;922898;-72
2022/12/30 01:24:17;;;;;;;2.39;1.45;;;;;;;4.72;66.37;101596.98;462615;112;922528;-72
2022/12/30 01:25:20;;;;;;;1.42;1.31;;;;;;;4.72;66.26;101599.68;461922;114;922600;-73
2022/12/30 01:26:23;;;;;;;1.94;1.46;;;;;;;4.74;66.30;101600.39;458342;114;923004;-72
2022/12/30 01:27:27;;;;;;;2.33;1.40;;;;;;;4.74;66.47;101603.09;458052;112;922534;-70
2022/12/30 01:28:32;;;;;;;1.81;1.41;;;;;;;4.74;66.38;101597.69;458362;114;922883;-73
2022/12/30 01:29:39;;;;;;;2.08;1.17;;;;;;;4.74;66.47;101592.29;458276;112;923125;-72
2022/12/30 01:30:42;;;;;;;2.28;1.51;;;;;;;4.74;66.41;101589.58;458100;112;922565;-72
2022/12/30 01:31:45;;;;;;;1.73;1.12;;;;;;;4.73;66.57;101596.84;458437;114;922601;-72
2022/12/30 01:32:48;;;;;;;2.58;1.52;;;;;;;4.74;66.50;101600.39;459142;112;922851;-72
2022/12/30 01:33:51;;;;;;;1.41;1.11;;;;;;;4.72;66.58;101597.83;458340;114;922512;-72
2022/12/30 01:34:55;;;;;;;1.43;1.26;;;;;;;4.74;66.76;101600.39;458970;112;922838;-73
2022/12/30 01:35:59;;;;;;;4.79;1.72;;;;;;;4.75;66.72;101602.06;458354;112;922546;-72
2022/12/30 01:37:02;;;;;;;2.18;1.48;;;;;;;4.77;66.79;101594.67;458452;114;922485;-72
2022/12/30 01:38:05;;;;;;;2.83;1.85;;;;;;;4.78;66.70;101591.83;458404;114;922862;-72
2022/12/30 01:39:08;;;;;;;3.42;1.49;;;;;;;4.80;66.71;101588.95;458301;114;930234;-72
2022/12/30 01:40:11;;;;;;;1.63;1.35;;;;;;;4.82;66.85;101592.36;458373;112;922445;-73
2022/12/30 01:41:14;;;;;;;2.77;1.62;;;;;;;4.82;66.87;101593.20;458434;114;922562;-73
2022/12/30 01:42:21;;;;;;;1.81;1.54;;;;;;;4.84;66.77;101590.36;458222;114;922949;-72
2022/12/30 01:43:44;;;;;;;2.56;1.71;;;;;;;4.85;66.90;101598.29;457625;115;922865;-72
2022/12/30 01:44:56;;;;;;;2.07;1.65;;;;;;;4.87;66.85;101595.45;458924;112;922661;-73
2022/12/30 01:46:00;;;;;;;2.46;1.73;;;;;;;4.88;66.85;101599.86;457953;112;922882;-71
2022/12/30 01:47:03;;;;;;;1.95;1.72;;;;;;;4.89;66.91;101597.01;457538;115;922578;-73
2022/12/30 01:48:12;;;;;;;1.47;1.37;;;;;;;4.90;66.86;101600.56;459110;112;922636;-72
2022/12/30 01:49:15;;;;;;;2.06;1.67;;;;;;;4.89;66.87;101594.30;455641;112;922514;-72
2022/12/30 01:50:34;;;;;;;2.47;1.69;;;;;;;4.90;66.83;101589.75;457691;114;922852;-72
2022/12/30 01:51:37;;;;;;;2.03;1.73;;;;;;;4.91;66.92;101596.83;458961;112;922590;-72
2022/12/30 01:52:47;;;;;;;1.83;1.46;;;;;;;4.92;66.94;101587.72;458261;112;922549;-72
2022/12/30 01:54:00;;;;;;;1.66;1.37;;;;;;;5.03;66.94;101592.91;473675;110;947392;-72
2022/12/30 01:55:07;;;;;;;2.08;1.52;;;;;;;4.92;66.90;101593.98;449655;116;922632;-73
2022/12/30 01:56:20;;;;;;;2.52;1.58;;;;;;;4.91;66.90;101594.98;450268;113;922472;-73
2022/12/30 01:57:24;;;;;;;1.72;1.22;;;;;;;4.90;66.94;101593.31;450302;113;922631;-72
2022/12/30 01:58:36;;;;;;;2.26;1.42;;;;;;;4.90;66.94;101593.31;450933;113;922600;-72
2022/12/30 01:59:43;;;;;;;1.92;1.33;;;;;;;4.90;66.93;101587.91;455230;113;922546;-72
2022/12/30 02:00:46;;;;;;;3.09;1.48;;;;;;;4.91;66.96;101588.72;452054;113;922455;-72
2022/12/30 02:01:50;;;;;;;2.21;1.69;;;;;;;4.91;67.02;101596.83;450826;113;922837;-73
2022/12/30 02:02:55;;;;;;;1.98;1.50;;;;;;;4.93;67.12;101600.24;450565;113;930356;-73
2022/12/30 02:04:02;;;;;;;2.03;1.64;;;;;;;4.94;67.06;101597.39;451274;113;930263;-73
2022/12/30 02:05:07;;;;;;;2.13;1.41;;;;;;;4.95;67.00;101600.95;451673;113;922588;-73
2022/12/30 02:06:15;;;;;;;2.82;1.47;;;;;;;4.96;67.04;101608.06;450527;113;922412;-73
2022/12/30 02:07:25;;;;;;;2.88;1.58;;;;;;;4.97;67.15;101601.62;453664;113;922927;-72
2022/12/30 02:08:29;;;;;;;1.89;1.57;;;;;;;4.99;67.22;101602.33;449600;118;923558;-72
2022/12/30 02:09:34;;;;;;;1.98;1.62;;;;;;;5.01;67.21;101601.19;450282;113;922803;-72
2022/12/30 02:10:40;;;;;;;2.28;1.38;;;;;;;5.04;67.20;101603.57;450312;113;922611;-72
2022/12/30 02:11:43;;;;;;;2.25;1.30;;;;;;;5.07;67.20;101596.17;451519;113;922637;-72
2022/12/30 02:12:47;;;;;;;2.47;1.70;;;;;;;5.08;67.05;101592.44;451592;113;922668;-72
2022/12/30 02:13:50;;;;;;;1.65;1.23;;;;;;;5.09;66.97;101588.73;450866;113;922821;-72
2022/12/30 02:14:55;;;;;;;2.09;1.30;;;;;;;5.10;67.05;101595.84;450914;113;922530;-73
2022/12/30 02:16:31;;;;;;;1.81;1.28;;;;;;;5.09;66.94;101589.59;451266;113;923360;-73
2022/12/30 02:17:43;;;;;;;1.74;1.21;;;;;;;5.09;66.93;101586.88;450879;113;922589;-72
2022/12/30 02:19:20;;;;;;;2.16;1.31;;;;;;;5.19;66.93;101567.87;470230;110;947003;-73
2022/12/30 02:20:47;;;;;;;1.56;1.29;;;;;;;5.07;67.01;101574.55;457415;114;922459;-73
2022/12/30 02:22:03;;;;;;;1.81;1.44;;;;;;;5.07;66.98;101566.44;449866;114;923336;-73
2022/12/30 02:23:16;;;;;;;1.79;1.45;;;;;;;5.05;67.13;101569.28;449176;114;922567;-72
2022/12/30 02:24:40;;;;;;;1.54;1.17;;;;;;;5.06;67.26;101573.69;448413;117;922875;-72
2022/12/30 02:25:58;;;;;;;2.81;1.74;;;;;;;5.08;67.33;101570.81;449999;116;922567;-72
2022/12/30 02:27:14;;;;;;;1.79;1.49;;;;;;;5.10;67.35;101576.92;448424;116;922528;-72
2022/12/30 02:28:30;;;;;;;3.26;1.51;;;;;;;5.12;67.36;101573.08;450175;116;922559;-73
2022/12/30 02:30:01;;;;;;;2.29;1.57;;;;;;;5.13;67.30;101572.05;449598;118;922735;-73
2022/12/30 02:31:24;;;;;;;1.74;1.42;;;;;;;5.13;67.22;101572.05;449681;116;922882;-72
2022/12/30 02:32:48;;;;;;;1.96;1.42;;;;;;;5.15;67.21;101574.60;450290;114;922942;-73
2022/12/30 02:33:58;;;;;;;2.28;1.29;;;;;;;5.15;67.28;101571.89;450275;114;923115;-73
2022/12/30 02:35:13;;;;;;;2.44;1.41;;;;;;;5.14;67.15;101575.60;451762;114;922614;-72
2022/12/30 02:36:23;;;;;;;1.53;1.22;;;;;;;5.12;67.15;101578.48;454604;114;922449;-72
2022/12/30 02:37:41;;;;;;;4.79;1.51;;;;;;;5.12;67.20;101585.73;448675;114;922772;-72
2022/12/30 02:38:48;;;;;;;1.96;1.37;;;;;;;5.13;67.20;101587.45;449247;114;923102;-73
2022/12/30 02:40:04;;;;;;;1.99;1.34;;;;;;;5.13;67.32;101580.16;455824;114;922546;-73
2022/12/30 02:44:38;;;;;;;;;;;;;;;5.14;67.28;101581.86;452113;117;922129;-74
2022/12/30 02:45:54;;;;;;;1.76;1.26;;;;;;;5.12;67.15;101583.89;450495;116;922331;-73
2022/12/30 02:47:12;;;;;;;1.59;1.32;;;;;;;5.09;67.24;101586.03;450436;114;923119;-72
2022/12/30 02:48:31;;;;;;;2.14;1.20;;;;;;;5.06;67.31;101584.50;449566;116;922847;-72
2022/12/30 02:49:37;;;;;;;2.26;1.42;;;;;;;5.06;67.52;101587.20;450137;115;922658;-73
2022/12/30 02:52:14;;;;;;;2.29;1.32;;;;;;;5.08;67.46;101592.44;448411;118;922638;-72
2022/12/30 02:53:20;;;;;;;2.52;1.58;;;;;;;5.09;67.47;101603.10;449360;116;922535;-73
2022/12/30 02:54:24;;;;;;;1.83;1.36;;;;;;;5.10;67.48;101596.70;449403;114;922546;-72
2022/12/30 02:55:28;;;;;;;2.39;1.33;;;;;;;5.11;67.57;101597.55;460449;114;922520;-72
2022/12/30 02:56:31;;;;;;;2.28;1.02;;;;;;;5.12;67.45;101605.52;451266;114;922721;-73
2022/12/30 02:57:35;;;;;;;1.52;1.16;;;;;;;5.13;67.40;101612.59;452317;114;922483;-72
2022/12/30 02:58:41;;;;;;;1.66;1.19;;;;;;;5.15;67.44;101613.30;449366;114;922651;-72
2022/12/30 03:04:20;;;;;;;1.12;1.02;;;;;;;5.22;67.37;101618.95;451032;114;922590;-72
2022/12/30 03:05:41;;;;;;;2.28;1.43;;;;;;;5.22;67.37;101627.05;449292;116;930136;-73
2022/12/30 03:07:01;;;;;;;1.91;1.55;;;;;;;5.33;67.40;101613.30;473655;110;946853;-72
2022/12/30 03:08:22;;;;;;;3.49;1.29;;;;;;;5.20;67.29;101624.50;457946;114;922610;-73
2022/12/30 03:09:37;;;;;;;1.84;1.46;;;;;;;5.20;67.29;101627.20;454424;115;922501;-73
2022/12/30 03:12:27;;;;;;;1.95;1.52;;;;;;;5.18;67.20;101633.78;450798;114;922497;-73
2022/12/30 03:13:39;;;;;;;2.91;1.53;;;;;;;5.15;67.21;101629.52;457428;114;922597;-72
2022/12/30 03:14:46;;;;;;;1.96;1.68;;;;;;;5.14;67.40;101624.27;455688;114;922573;-72
2022/12/30 03:15:56;;;;;;;2.82;1.48;;;;;;;5.13;67.36;101631.52;449690;114;922617;-72
2022/12/30 03:17:09;;;;;;;3.05;1.87;;;;;;;5.14;67.45;101638.62;450885;114;922432;-73
2022/12/30 03:18:28;;;;;;;2.34;1.57;;;;;;;5.25;67.44;101638.40;475677;110;946780;-73
2022/12/30 03:19:34;;;;;;;2.09;1.22;;;;;;;5.15;67.42;101634.08;466841;112;922591;-73
2022/12/30 03:20:40;;;;;;;1.72;1.45;;;;;;;5.14;67.48;101635.92;463057;114;923007;-72
2022/12/30 03:21:44;;;;;;;2.43;1.81;;;;;;;5.14;67.44;101635.92;463178;114;922607;-73
2022/12/30 03:27:03;;;;;;;2.08;1.51;;;;;;;5.10;67.60;101647.20;463183;114;922985;-73
2022/12/30 03:28:10;;;;;;;1.89;1.46;;;;;;;5.10;67.60;101647.20;463161;112;922542;-73
2022/12/30 03:29:16;;;;;;;2.62;1.83;;;;;;;5.10;67.57;101650.77;463326;112;922551;-73
2022/12/30 03:30:20;;;;;;;2.48;1.72;;;;;;;5.11;67.59;101640.80;463245;112;922486;-72
2022/12/30 03:31:23;;;;;;;4.29;1.75;;;;;;;5.10;67.55;101642.66;463450;112;922877;-73
2022/12/30 03:32:27;;;;;;;3.14;1.68;;;;;;;5.11;67.55;101635.39;463340;112;922934;-73
2022/12/30 03:33:32;;;;;;;2.61;1.63;;;;;;;5.12;67.67;101640.66;463171;114;930361;-72
2022/12/30 03:34:35;;;;;;;1.44;1.19;;;;;;;5.14;67.58;101643.19;463172;112;922561;-73
2022/12/30 03:35:42;;;;;;;1.61;1.51;;;;;;;5.15;67.69;101640.34;463508;112;922560;-73
2022/12/30 03:36:49;;;;;;;1.86;1.61;;;;;;;5.16;67.58;101639.34;463188;112;930274;-72
2022/12/30 03:37:55;;;;;;;2.64;1.78;;;;;;;5.18;67.71;101645.45;463291;112;922853;-73
2022/12/30 03:39:11;;;;;;;3.56;2.24;;;;;;;5.20;67.71;101647.98;463637;112;922529;-73
2022/12/30 03:40:21;;;;;;;1.95;1.61;;;;;;;5.20;67.69;101646.13;463161;112;922481;-72
2022/12/30 03:41:25;;;;;;;2.84;1.90;;;;;;;5.21;67.55;101650.54;463241;112;922668;-72
2022/12/30 03:42:29;;;;;;;1.91;1.59;;;;;;;5.20;67.55;101651.53;463353;112;923048;-72
2022/12/30 03:43:34;;;;;;;2.48;1.79;;;;;;;5.19;67.66;101644.42;463282;114;922470;-72
2022/12/30 03:44:41;;;;;;;2.10;1.47;;;;;;;5.20;67.68;101642.57;463096;112;922963;-72
2022/12/30 03:45:45;;;;;;;2.43;1.96;;;;;;;5.19;67.60;101649.83;463094;114;922503;-72
2022/12/30 03:46:48;;;;;;;1.84;1.54;;;;;;;5.19;67.69;101648.97;463225;112;922827;-73
2022/12/30 03:47:51;;;;;;;2.99;1.73;;;;;;;5.18;67.60;101650.86;463247;114;922435;-73
2022/12/30 03:48:55;;;;;;;2.04;1.84;;;;;;;5.18;67.60;101648.16;463481;112;930564;-73
2022/12/30 03:49:58;;;;;;;2.39;1.77;;;;;;;5.18;67.70;101648.16;463409;112;922836;-73
2022/12/30 03:51:01;;;;;;;2.08;1.66;;;;;;;5.18;67.72;101647.30;463300;114;922878;-73
2022/12/30 03:52:04;;;;;;;2.42;1.71;;;;;;;5.17;67.65;101642.89;463288;112;922586;-72
2022/12/30 03:53:08;;;;;;;2.16;1.88;;;;;;;5.18;67.76;101641.89;463290;112;922513;-73
2022/12/30 03:54:11;;;;;;;2.99;1.92;;;;;;;5.18;67.65;101653.56;463689;112;922785;-71
2022/12/30 03:55:14;;;;;;;3.58;1.84;;;;;;;5.17;67.69;101640.19;463824;112;922494;-73
2022/12/30 03:56:18;;;;;;;1.93;1.39;;;;;;;5.16;67.70;101641.19;463322;114;922570;-72
2022/12/30 03:57:21;;;;;;;3.72;1.67;;;;;;;5.15;67.76;101645.74;463849;112;922889;-73
2022/12/30 03:58:24;;;;;;;2.17;1.80;;;;;;;5.16;67.82;101646.59;463423;112;922523;-73
2022/12/30 03:59:27;;;;;;;3.19;1.91;;;;;;;5.14;67.88;101646.74;463548;112;922976;-72
2022/12/30 04:00:32;;;;;;;2.42;2.01;;;;;;;5.14;67.89;101654.84;463644;112;922494;-73
2022/12/30 04:01:35;;;;;;;2.18;1.83;;;;;;;5.14;67.88;101646.74;463137;114;922559;-72
2022/12/30 04:02:38;;;;;;;2.14;1.57;;;;;;;5.13;67.82;101650.44;463608;112;930308;-72
2022/12/30 04:03:41;;;;;;;3.59;1.94;;;;;;;5.13;67.92;101655.03;463378;112;922603;-73
2022/12/30 04:04:45;;;;;;;1.92;1.58;;;;;;;5.13;67.95;101655.84;463315;114;922678;-72
2022/12/30 04:05:54;;;;;;;3.60;1.59;;;;;;;5.12;67.91;101648.77;463189;112;922475;-72
2022/12/30 04:06:58;;;;;;;3.18;1.94;;;;;;;5.12;67.85;101647.91;463221;112;922582;-73
2022/12/30 04:08:01;;;;;;;2.44;1.49;;;;;;;5.12;67.85;101647.91;463393;114;922561;-73
2022/12/30 04:09:04;;;;;;;1.74;1.54;;;;;;;5.12;67.96;101648.77;463280;114;922530;-72
2022/12/30 04:10:08;;;;;;;2.43;1.87;;;;;;;5.11;67.99;101646.20;463248;112;922849;-73
2022/12/30 04:11:12;;;;;;;2.17;1.84;;;;;;;5.11;68.02;101646.20;463396;112;922518;-72
2022/12/30 04:12:15;;;;;;;1.98;1.74;;;;;;;5.11;68.01;101647.06;463293;114;930305;-73
2022/12/30 04:13:18;;;;;;;3.84;1.86;;;;;;;5.13;68.04;101649.63;463436;112;922936;-73
2022/12/30 04:14:21;;;;;;;1.96;1.71;;;;;;;5.12;68.09;101650.62;463225;112;922914;-73
2022/12/30 04:15:24;;;;;;;1.98;1.67;;;;;;;5.12;68.09;101650.62;463584;112;922532;-73
2022/12/30 04:16:28;;;;;;;2.40;1.62;;;;;;;5.11;68.13;101647.06;454417;114;922639;-73
2022/12/30 04:17:31;;;;;;;3.56;1.86;;;;;;;5.11;68.24;101654.31;454831;112;922676;-73
2022/12/30 04:18:35;;;;;;;2.04;1.56;;;;;;;5.09;68.27;101653.61;462595;113;922433;-73
2022/12/30 04:19:38;;;;;;;2.09;1.59;;;;;;;5.09;68.27;101653.61;463474;113;922441;-72
2022/12/30 04:20:41;;;;;;;3.63;1.78;;;;;;;5.07;68.26;101655.63;458388;114;922558;-73
2022/12/30 04:21:44;;;;;;;3.67;2.02;;;;;;;5.05;68.29;101647.67;458344;114;922545;-72
2022/12/30 04:22:47;;;;;;;2.21;1.87;;;;;;;5.04;68.36;101651.37;458386;113;922489;-72
2022/12/30 04:23:51;;;;;;;2.33;1.77;;;;;;;5.05;68.44;101650.37;461324;113;923187;-73
2022/12/30 04:24:54;;;;;;;4.01;2.02;;;;;;;5.05;68.46;101653.08;460368;113;922892;-74
2022/12/30 04:25:59;;;;;;;2.69;1.86;;;;;;;5.04;68.57;101644.11;458148;114;930623;-71
2022/12/30 04:27:02;;;;;;;2.69;1.71;;;;;;;5.05;68.56;101644.97;460458;113;922643;-73
2022/12/30 04:28:05;;;;;;;3.06;1.96;;;;;;;5.06;68.67;101645.82;458358;113;923224;-73
2022/12/30 04:29:09;;;;;;;2.99;2.30;;;;;;;5.07;68.63;101644.82;461680;113;922639;-73
2022/12/30 04:30:13;;;;;;;2.61;1.82;;;;;;;5.10;68.74;101644.50;458109;116;922636;-72
2022/12/30 04:31:16;;;;;;;2.90;1.76;;;;;;;5.10;68.72;101634.55;463353;114;922596;-73
2022/12/30 04:32:19;;;;;;;1.99;1.54;;;;;;;5.11;68.64;101648.91;460056;114;922460;-73
2022/12/30 04:33:22;;;;;;;2.64;2.02;;;;;;;5.12;68.73;101645.21;458133;114;928036;-73
2022/12/30 04:34:26;;;;;;;4.20;1.92;;;;;;;5.13;68.74;101645.03;458277;114;922465;-73
2022/12/30 04:35:29;;;;;;;2.39;1.74;;;;;;;5.14;68.82;101640.48;458884;114;922773;-72
2022/12/30 04:36:32;;;;;;;3.31;2.29;;;;;;;5.15;68.84;101644.89;458171;114;922901;-72
2022/12/30 04:37:35;;;;;;;2.92;2.07;;;;;;;5.16;68.79;101641.19;458529;114;922924;-73
2022/12/30 04:38:39;;;;;;;3.28;1.94;;;;;;;5.14;68.82;101643.19;458261;114;922578;-73
2022/12/30 04:39:42;;;;;;;2.19;1.69;;;;;;;5.14;68.72;101638.62;458309;114;922524;-73
2022/12/30 04:40:45;;;;;;;3.29;2.01;;;;;;;5.14;68.84;101640.48;458447;114;922534;-73
2022/12/30 04:41:48;;;;;;;2.39;1.97;;;;;;;5.14;68.79;101644.03;458422;114;923023;-72
2022/12/30 04:42:51;;;;;;;4.19;2.19;;;;;;;5.14;68.90;101644.03;458347;114;922539;-73
2022/12/30 04:43:54;;;;;;;3.46;2.14;;;;;;;5.15;68.88;101650.30;458382;114;922814;-72
2022/12/30 04:44:58;;;;;;;2.51;1.92;;;;;;;5.14;68.85;101648.59;458257;114;922672;-73
2022/12/30 04:46:01;;;;;;;3.33;2.22;;;;;;;5.12;68.84;101647.91;458161;116;922527;-72
2022/12/30 04:47:04;;;;;;;2.54;1.89;;;;;;;5.12;68.83;101637.10;458324;114;922536;-73
2022/12/30 04:48:07;;;;;;;2.86;1.82;;;;;;;5.10;68.87;101645.36;458227;114;922808;-73
2022/12/30 04:49:10;;;;;;;3.36;2.41;;;;;;;5.08;68.98;101647.34;458276;114;923379;-73
2022/12/30 04:50:13;;;;;;;2.50;1.92;;;;;;;5.07;68.97;101642.97;458154;114;922703;-72
2022/12/30 04:51:17;;;;;;;2.71;2.15;;;;;;;5.07;68.98;101640.27;458337;114;922561;-73
2022/12/30 04:52:20;;;;;;;2.98;1.91;;;;;;;5.07;69.01;101645.67;458294;114;922634;-72
2022/12/30 04:53:23;;;;;;;3.61;2.42;;;;;;;5.07;69.04;101642.12;460661;114;922748;-74
2022/12/30 04:54:26;;;;;;;4.23;2.56;;;;;;;5.05;69.12;101644.97;458380;114;922474;-73
2022/12/30 04:55:29;;;;;;;3.42;1.96;;;;;;;5.05;69.04;101636.86;459270;114;923052;-73
2022/12/30 04:56:32;;;;;;;3.52;1.87;;;;;;;5.02;69.16;101640.70;458689;114;922610;-72
2022/12/30 04:57:35;;;;;;;4.44;2.21;;;;;;;5.03;69.18;101644.26;458679;114;923651;-72
2022/12/30 04:58:39;;;;;;;2.59;2.38;;;;;;;5.03;69.11;101647.81;462987;114;922842;-73
2022/12/30 04:59:42;;;;;;;3.60;1.92;;;;;;;5.02;69.16;101646.11;458304;114;922664;-73
2022/12/30 05:00:47;;;;;;;2.75;1.78;;;;;;;5.02;69.25;101648.81;460570;114;922495;-73
2022/12/30 05:01:50;;;;;;;3.12;1.89;;;;;;;5.03;69.30;101655.92;458236;114;922581;-73
2022/12/30 05:02:54;;;;;;;2.97;1.78;;;;;;;5.04;69.43;101649.52;458307;114;922431;-72
2022/12/30 05:03:57;;;;;;;3.22;1.65;;;;;;;5.03;69.32;101650.52;458536;114;922624;-73
2022/12/30 05:05:00;;;;;;;2.28;1.50;;;;;;;5.02;69.43;101654.22;463684;114;922568;-72
2022/12/30 05:06:03;;;;;;;2.87;1.61;;;;;;;5.01;69.40;101659.80;460357;114;922547;-72
2022/12/30 05:07:06;;;;;;;1.72;1.43;;;;;;;5.01;69.45;101657.95;463100;114;923250;-72
2022/12/30 05:08:10;;;;;;;7.03;2.24;;;;;;;4.99;69.50;101657.23;458411;114;922436;-72
2022/12/30 05:09:13;;;;;;;2.46;1.67;;;;;;;5.00;69.62;101655.39;458171;116;922543;-72
2022/12/30 05:10:17;;;;;;;2.31;1.73;;;;;;;5.01;69.58;101654.39;458131;114;922573;-72
2022/12/30 05:11:21;;;;;;;2.58;2.16;;;;;;;5.02;69.65;101656.06;458282;114;922513;-72
2022/12/30 05:12:24;;;;;;;2.19;1.41;;;;;;;5.02;69.76;101651.52;458290;114;922456;-73
2022/12/30 05:13:27;;;;;;;3.26;2.12;;;;;;;5.04;69.71;101657.63;458221;114;922793;-72
2022/12/30 05:14:30;;;;;;;2.10;1.65;;;;;;;5.07;69.74;101666.45;458304;114;922997;-72
2022/12/30 05:15:33;;;;;;;2.65;1.62;;;;;;;5.10;69.82;101660.72;458475;114;922579;-73
2022/12/30 05:16:36;;;;;;;2.79;1.72;;;;;;;5.10;69.72;101656.17;458328;114;922929;-73
2022/12/30 05:17:39;;;;;;;2.38;1.59;;;;;;;5.13;69.78;101657.73;458251;114;923032;-72
2022/12/30 05:18:42;;;;;;;2.70;1.86;;;;;;;5.13;69.82;101655.84;458297;114;923672;-74
2022/12/30 05:19:45;;;;;;;2.83;1.71;;;;;;;5.13;69.82;101650.44;458310;114;922941;-72
2022/12/30 05:20:48;;;;;;;3.24;1.90;;;;;;;5.15;69.82;101661.11;459967;114;923210;-72
2022/12/30 05:21:51;;;;;;;2.91;2.14;;;;;;;5.15;69.76;101653.85;458541;114;922514;-73
2022/12/30 05:22:54;;;;;;;2.94;2.08;;;;;;;5.16;69.76;101652.86;460483;114;923112;-72
2022/12/30 05:26:41;;;;;;;1.97;1.76;;;;;;;5.18;69.62;101656.27;458045;114;922712;-73
2022/12/30 05:27:44;;;;;;;2.63;2.02;;;;;;;5.18;69.75;101656.27;459431;114;923255;-72
2022/12/30 05:28:48;;;;;;;3.61;2.18;;;;;;;5.18;69.71;101667.08;458380;114;922469;-73
2022/12/30 05:29:51;;;;;;;2.58;2.21;;;;;;;5.18;69.64;101667.08;459770;114;922721;-73
2022/12/30 05:30:54;;;;;;;4.38;2.72;;;;;;;5.18;69.75;101658.12;460367;114;922463;-74
2022/12/30 05:31:58;;;;;;;3.99;1.85;;;;;;;5.19;69.60;101659.79;458379;114;922940;-73
2022/12/30 05:33:01;;;;;;;5.59;2.29;;;;;;;5.19;69.69;101657.94;458359;114;922543;-73
2022/12/30 05:34:04;;;;;;;2.71;2.08;;;;;;;5.20;69.70;101662.35;458402;114;922588;-72
2022/12/30 05:35:09;;;;;;;4.27;2.40;;;;;;;5.23;69.75;101663.91;457835;114;922541;-72
2022/12/30 05:36:14;;;;;;;3.13;2.45;;;;;;;5.23;69.71;101663.91;458183;114;922471;-72
2022/12/30 05:37:17;;;;;;;3.26;2.48;;;;;;;5.24;69.58;101661.03;461292;114;930290;-73
2022/12/30 05:38:20;;;;;;;2.74;2.37;;;;;;;5.24;69.47;101666.44;460140;114;922902;-73
2022/12/30 05:39:23;;;;;;;2.65;2.21;;;;;;;5.23;69.51;101667.47;461517;114;922830;-73
2022/12/30 05:40:26;;;;;;;3.67;2.71;;;;;;;5.22;69.36;101665.77;458166;116;922596;-73
2022/12/30 05:41:29;;;;;;;2.99;2.27;;;;;;;5.21;69.47;101663.20;458230;114;922469;-73
2022/12/30 05:42:33;;;;;;;6.79;2.96;;;;;;;5.20;69.50;101665.05;458349;114;922875;-72
2022/12/30 05:43:36;;;;;;;3.81;2.73;;;;;;;5.19;69.43;101666.05;458281;114;922500;-72
2022/12/30 05:44:39;;;;;;;2.91;2.49;;;;;;;5.19;69.49;101666.05;458119;114;930513;-73
2022/12/30 05:45:42;;;;;;;6.11;2.19;;;;;;;5.21;69.54;101665.91;459943;114;922583;-73
2022/12/30 05:46:45;;;;;;;3.36;2.31;;;;;;;5.21;69.43;101658.65;461591;114;922964;-73
2022/12/30 05:47:49;;;;;;;3.62;2.69;;;;;;;5.22;69.53;101657.65;458353;114;922586;-73
2022/12/30 05:48:52;;;;;;;4.06;2.18;;;;;;;5.22;69.53;101657.65;458380;114;922872;-73
2022/12/30 05:49:55;;;;;;;3.13;2.62;;;;;;;5.22;69.50;101657.65;458447;114;922547;-72
2022/12/30 05:50:58;;;;;;;3.21;2.58;;;;;;;5.24;69.40;101657.47;458214;114;922453;-73
2022/12/30 05:52:01;;;;;;;3.46;2.31;;;;;;;5.24;69.52;101661.03;458182;114;922664;-73
2022/12/30 05:53:04;;;;;;;4.10;2.27;;;;;;;5.24;69.50;101663.73;458238;114;923925;-73
2022/12/30 05:54:07;;;;;;;2.92;2.23;;;;;;;5.24;69.50;101657.47;458246;114;922672;-72